Imperial Beach, CA (91933)

4:23 PM PDT on July 25, 2016 (GMT -0700)
KCAIMPER2 | | Change Station

Elev 14 ft 32.58 °N, 117.13 °W | Updated 1 minute ago

Mostly Cloudy
Mostly Cloudy
73.2 °F
Feels Like 73 °F
N
4.0
Wind Variable Wind from WNW
Gusts 9.0 mph

Today
High -- | Low -- °F
--% Chance of Precip.
Yesterday
High -- | Low -- °F
Precip. -- in
Pressure 29.91 in
Visibility 8.0 miles
Clouds Scattered Clouds 6000 ft
Mostly Cloudy 15000 ft
Mostly Cloudy 20000 ft
Heat Index 73 °F
Dew Point 67 °F
Humidity 81%
Rainfall 0.00 in
Snow Depth Not available.
5:58 AM 7:51 PM
Waning Gibbous, 61% visible
METAR KNRS 252256Z 26009KT 8SM SCT060 BKN150 BKN200 26/19 A2991 RMK AO2 SLP127 T02560189 $
Pressure 29.91 in
Visibility 8.0 miles
Clouds Scattered Clouds 6000 ft
Mostly Cloudy 15000 ft
Mostly Cloudy 20000 ft
Heat Index 73 °F
Dew Point 67 °F
Humidity 81%
Rainfall 0.00 in
Snow Depth Not available.
5:58 AM 7:51 PM
Waning Gibbous, 61% visible
METAR KNRS 252256Z 26009KT 8SM SCT060 BKN150 BKN200 26/19 A2991 RMK AO2 SLP127 T02560189 $

10-Day Weather Forecast

Almanac

Astronomy

Jul. 25, 2016 Rise Set
Actual Time
Civil Twilight
Nautical Twilight
Astronomical Twilight
Moon
Length of Visible Light
Length of Day
Tomorrow will be .
, % of the Moon is Illuminated

Today's Extremes

State Highs State Lows

Community

WunderPhotos

Upload Photos

1,927,444 photos uploaded!

WunderBlog® & News

Nearby

Air Quality

  Air Quality AQ Index Pollutant
Not available.

Snow Depth

Station Depth Elevation

Earthquake Activity

City Distance Mag. Time & Date
Minimum magnitude displayed is 2.5.

Coastal Water Temperatures

Place Temperature

Stations

Nearby Weather Stations

Station Location Temp. Windchill Dew Point Humidity Wind Precip. Elev Updated Type
                   

Watches & Warnings

There are currently no watches in effect.